Flight Track Log - Related Links

Times and Time Zones

All times are in EDT time to prevent confusion due to time zone crossing. See the UAL109 flight status page for this flight to view local times or setup timezone preferences in your user account.

Time Position Orientation Groundspeed Altitude Reporting Facility
EDT Latitude Longitude Course Direction KTS MPH feet Rate Location/Type
Sun 01:56:00 PM 55.9767 -3.5896 282° West  Level Estimated
Sun 01:57:00 PM 56.0030 -3.8071 282° West  Level Estimated
Sun 01:58:00 PM 56.0289 -4.0248 282° West  Level Estimated
Sun 01:59:00 PM 56.0545 -4.2428 282° West  Level Estimated
Sun 02:00:00 PM 56.0796 -4.4611 282° West  Level Estimated
Sun 02:01:00 PM 56.1044 -4.6797 282° West  Level Estimated
Sun 02:02:00 PM 56.1288 -4.8986 281° West  Level Estimated
Sun 02:03:00 PM 56.1528 -5.1178 281° West  Level Estimated
Sun 02:04:00 PM 56.1764 -5.3372 281° West  Level Estimated
Sun 02:05:00 PM 56.1996 -5.5569 281° West  Level Estimated
Sun 02:06:00 PM 56.2224 -5.7768 281° West  Level Estimated
Sun 02:07:00 PM 56.2449 -5.9970 280° West  Level Estimated
Sun 02:08:00 PM 56.2669 -6.2175 280° West  Level Estimated
Sun 02:09:00 PM 56.2886 -6.4382 280° West  Level Estimated
Sun 02:10:00 PM 56.3098 -6.6592 280° West  Level Estimated
Sun 02:11:00 PM 56.3307 -6.8804 280° West  Level Estimated
Sun 02:12:00 PM 56.3512 -7.1018 280° West  Level Estimated
Sun 02:13:00 PM 56.3713 -7.3235 279° West  Level Estimated
Sun 02:14:00 PM 56.3909 -7.5455 279° West  Level Estimated
Sun 02:15:00 PM 56.4102 -7.7676 279° West  Level Estimated
Sun 02:16:00 PM 56.4291 -7.9900 279° West  Level Estimated
Sun 02:17:00 PM 56.4476 -8.2126 279° West  Level Estimated
Sun 02:18:00 PM 56.4657 -8.4354 278° West  Level Estimated
Sun 02:19:00 PM 56.4834 -8.6584 278° West  Level Estimated
Sun 02:20:00 PM 56.5007 -8.8816 278° West  Level Estimated
Sun 02:21:00 PM 56.5176 -9.1050 278° West  Level Estimated
Sun 02:22:00 PM 56.5341 -9.3286 278° West  Level Estimated
Sun 02:23:00 PM 56.5502 -9.5524 278° West  Level Estimated
Sun 02:24:00 PM 56.5658 -9.7764 277° West  Level Estimated
Sun 02:25:00 PM 56.5811 -10.0006 277° West  Level Estimated
Sun 02:26:00 PM 56.5960 -10.2250 277° West  Level Estimated
Sun 02:27:00 PM 56.6105 -10.4495 277° West  Level Estimated
Sun 02:28:00 PM 56.6246 -10.6742 277° West  Level Estimated
Sun 02:29:00 PM 56.6382 -10.8991 276° West  Level Estimated
Sun 02:30:00 PM 56.6515 -11.1241 276° West  Level Estimated
Sun 02:31:00 PM 56.6643 -11.3493 276° West  Level Estimated
Sun 02:32:00 PM 56.6768 -11.5746 276° West  Level Estimated
Sun 02:33:00 PM 56.6888 -11.8001 276° West  Level Estimated
Sun 02:34:00 PM 56.7005 -12.0257 275° West  Level Estimated
Sun 02:35:00 PM 56.7117 -12.2515 275° West  Level Estimated
Sun 02:36:00 PM 56.7225 -12.4774 275° West  Level Estimated
Sun 02:37:00 PM 56.7329 -12.7034 275° West  Level Estimated
Sun 02:38:00 PM 56.7429 -12.9295 275° West  Level Estimated
Sun 02:39:00 PM 56.7525 -13.1558 275° West  Level Estimated
Sun 02:40:00 PM 56.7617 -13.3822 274° West  Level Estimated
Sun 02:41:00 PM 56.7705 -13.6087 274° West  Level Estimated
Sun 02:42:00 PM 56.7788 -13.8352 274° West  Level Estimated
Sun 02:43:00 PM 56.7868 -14.0619 274° West  Level Estimated
Sun 02:44:00 PM 56.7943 -14.2887 274° West  Level Estimated
Sun 02:45:00 PM 56.8014 -14.5156 273° West  Level Estimated
Sun 02:46:00 PM 56.8082 -14.7425 273° West  Level Estimated
Sun 02:47:00 PM 56.8145 -14.9696 273° West  Level Estimated
Sun 02:48:00 PM 56.8204 -15.1966 273° West  Level Estimated
Sun 02:49:00 PM 56.8258 -15.4238 273° West  Level Estimated
Sun 02:50:00 PM 56.8309 -15.6511 272° West  Level Estimated
Sun 02:51:00 PM 56.8355 -15.8784 272° West  Level Estimated
Sun 02:52:00 PM 56.8398 -16.1057 272° West  Level Estimated
Sun 02:53:00 PM 56.8436 -16.3331 272° West  Level Estimated
Sun 02:54:00 PM 56.8470 -16.5606 272° West  Level Estimated
Sun 02:55:00 PM 56.8500 -16.7880 271° West  Level Estimated
Sun 02:56:00 PM 56.8526 -17.0156 271° West  Level Estimated
Sun 02:57:00 PM 56.8548 -17.2431 271° West  Level Estimated
Sun 02:58:00 PM 56.8565 -17.4707 271° West  Level Estimated
Sun 02:59:00 PM 56.8579 -17.6982 271° West  Level Estimated
Sun 03:00:00 PM 56.8588 -17.9258 271° West  Level Estimated
Sun 03:01:00 PM 56.8593 -18.1535 270° West  Level Estimated
Sun 03:02:00 PM 56.8594 -18.3811 270° West  Level Estimated
Sun 03:03:00 PM 56.8591 -18.6087 270° West  Level Estimated
Sun 03:04:00 PM 56.8584 -18.8363 270° West  Level Estimated
Sun 03:05:00 PM 56.8573 -19.0639 270° West  Level Estimated
Sun 03:06:00 PM 56.8557 -19.2915 269° West  Level Estimated
Sun 03:07:00 PM 56.8537 -19.5190 269° West  Level Estimated
Sun 03:08:00 PM 56.8513 -19.7465 269° West  Level Estimated
Sun 03:09:00 PM 56.8486 -19.9741 269° West  Level Estimated
Sun 03:10:00 PM 56.8453 -20.2015 269° West  Level Estimated
Sun 03:11:00 PM 56.8417 -20.4289 268° West  Level Estimated
Sun 03:12:00 PM 56.8377 -20.6563 268° West  Level Estimated
Sun 03:13:00 PM 56.8332 -20.8836 268° West  Level Estimated
Sun 03:14:00 PM 56.8284 -21.1109 268° West  Level Estimated
Sun 03:15:00 PM 56.8231 -21.3381 268° West  Level Estimated
Sun 03:16:00 PM 56.8174 -21.5652 267° West  Level Estimated
Sun 03:17:00 PM 56.8113 -21.7923 267° West  Level Estimated
Sun 03:18:00 PM 56.8048 -22.0193 267° West  Level Estimated
Sun 03:19:00 PM 56.7979 -22.2462 267° West  Level Estimated
Sun 03:20:00 PM 56.7906 -22.4730 267° West  Level Estimated
Sun 03:21:00 PM 56.7828 -22.6998 267° West  Level Estimated
Sun 03:22:00 PM 56.7747 -22.9264 266° West  Level Estimated
Sun 03:23:00 PM 56.7661 -23.1529 266° West  Level Estimated
Sun 03:24:00 PM 56.7571 -23.3794 266° West  Level Estimated
Sun 03:25:00 PM 56.7477 -23.6057 266° West  Level Estimated
Sun 03:26:00 PM 56.7379 -23.8319 266° West  Level Estimated
Sun 03:27:00 PM 56.7277 -24.0579 265° West  Level Estimated
Sun 03:28:00 PM 56.7171 -24.2839 265° West  Level Estimated
Sun 03:29:00 PM 56.7061 -24.5097 265° West  Level Estimated
Sun 03:30:00 PM 56.6947 -24.7354 265° West  Level Estimated
Sun 03:31:00 PM 56.6828 -24.9610 265° West  Level Estimated
Sun 03:32:00 PM 56.6706 -25.1864 264° West  Level Estimated
Sun 03:33:00 PM 56.6579 -25.4116 264° West  Level Estimated
Sun 03:34:00 PM 56.6449 -25.6368 264° West  Level Estimated
Sun 03:35:00 PM 56.6314 -25.8617 264° West  Level Estimated
Sun 03:36:00 PM 56.6175 -26.0865 264° West  Level Estimated
Sun 03:37:00 PM 56.6032 -26.3111 264° West  Level Estimated
Sun 03:38:00 PM 56.5886 -26.5356 263° West  Level Estimated
Sun 03:39:00 PM 56.5735 -26.7598 263° West  Level Estimated
Sun 03:40:00 PM 56.5580 -26.9839 263° West  Level Estimated
Sun 03:41:00 PM 56.5421 -27.2078 263° West  Level Estimated
Sun 03:42:00 PM 56.5258 -27.4315 263° West  Level Estimated
Sun 03:43:00 PM 56.5091 -27.6551 262° West  Level Estimated
Sun 03:44:00 PM 56.4920 -27.8784 262° West  Level Estimated
Sun 03:45:00 PM 56.4745 -28.1015 262° West  Level Estimated
Sun 03:46:00 PM 56.4566 -28.3244 262° West  Level Estimated
Sun 03:47:00 PM 56.4384 -28.5471 262° West  Level Estimated
Sun 03:48:00 PM 56.4197 -28.7696 261° West  Level Estimated
Sun 03:49:00 PM 56.4006 -28.9918 261° West  Level Estimated
Sun 03:50:00 PM 56.3811 -29.2139 261° West  Level Estimated
Sun 03:51:00 PM 56.3612 -29.4357 261° West  Level Estimated
Sun 03:52:00 PM 56.3409 -29.6572 261° West  Level Estimated
Sun 03:53:00 PM 56.3203 -29.8786 261° West  Level Estimated
Sun 03:54:00 PM 56.2992 -30.0996 260° West  Level Estimated
Sun 03:55:00 PM 56.2777 -30.3205 260° West  Level Estimated
Sun 03:56:00 PM 56.2559 -30.5411 260° West  Level Estimated
Sun 03:57:00 PM 56.2336 -30.7614 260° West  Level Estimated
Sun 03:58:00 PM 56.2110 -30.9815 260° West  Level Estimated
Sun 03:59:00 PM 56.1880 -31.2013 259° West  Level Estimated
Sun 04:00:00 PM 56.1645 -31.4209 259° West  Level Estimated
Sun 04:01:00 PM 56.1407 -31.6402 259° West  Level Estimated
Sun 04:02:00 PM 56.1166 -31.8592 259° West  Level Estimated
Sun 04:03:00 PM 56.0920 -32.0779 259° West  Level Estimated
Sun 04:04:00 PM 56.0670 -32.2963 259° West  Level Estimated
Sun 04:05:00 PM 56.0416 -32.5145 258° West  Level Estimated
Sun 04:06:00 PM 56.0159 -32.7324 258° West  Level Estimated
Sun 04:07:00 PM 55.9898 -32.9500 258° West  Level Estimated
Sun 04:08:00 PM 55.9633 -33.1673 258° West  Level Estimated
Sun 04:09:00 PM 55.9364 -33.3843 258° West  Level Estimated
Sun 04:10:00 PM 55.9091 -33.6009 257° West  Level Estimated
Sun 04:11:00 PM 55.8815 -33.8173 257° West  Level Estimated
Sun 04:12:00 PM 55.8535 -34.0334 257° West  Level Estimated
Sun 04:13:00 PM 55.8251 -34.2492 257° West  Level Estimated
Sun 04:14:00 PM 55.7963 -34.4646 257° West  Level Estimated
Sun 04:15:00 PM 55.7672 -34.6797 257° West  Level Estimated
Sun 04:16:00 PM 55.7376 -34.8945 256° West  Level Estimated
Sun 04:17:00 PM 55.7077 -35.1090 256° West  Level Estimated
Sun 04:18:00 PM 55.6774 -35.3231 256° West  Level Estimated
Sun 04:19:00 PM 55.6468 -35.5369 256° West  Level Estimated
Sun 04:20:00 PM 55.6158 -35.7504 256° West  Level Estimated
Sun 04:21:00 PM 55.5844 -35.9635 255° West  Level Estimated
Sun 04:22:00 PM 55.5526 -36.1763 255° West  Level Estimated
Sun 04:23:00 PM 55.5205 -36.3888 255° West  Level Estimated
Sun 04:24:00 PM 55.4880 -36.6009 255° West  Level Estimated
Sun 04:25:00 PM 55.4552 -36.8126 255° West  Level Estimated
Sun 04:26:00 PM 55.4219 -37.0240 255° West  Level Estimated
Sun 04:27:00 PM 55.3883 -37.2350 254° West  Level Estimated
Sun 04:28:00 PM 55.3544 -37.4457 254° West  Level Estimated
Sun 04:29:00 PM 55.3201 -37.6560 254° West  Level Estimated
Sun 04:30:00 PM 55.2854 -37.8659 254° West  Level Estimated
Sun 04:31:00 PM 55.2504 -38.0755 254° West  Level Estimated
Sun 04:32:00 PM 55.2150 -38.2847 254° West  Level Estimated
Sun 04:33:00 PM 55.1792 -38.4935 253° West  Level Estimated
Sun 04:34:00 PM 55.1431 -38.7020 253° West  Level Estimated
Sun 04:35:00 PM 55.1067 -38.9101 253° West  Level Estimated
Sun 04:36:00 PM 55.0699 -39.1177 253° West  Level Estimated
Sun 04:37:00 PM 55.0327 -39.3251 253° West  Level Estimated
Sun 04:38:00 PM 54.9952 -39.5320 253° West  Level Estimated
Sun 04:39:00 PM 54.9573 -39.7385 252° West  Level Estimated
Sun 04:40:00 PM 54.9191 -39.9446 252° West  Level Estimated
Sun 04:41:00 PM 54.8805 -40.1504 252° West  Level Estimated
Sun 04:42:00 PM 54.8416 -40.3558 252° West  Level Estimated
Sun 04:43:00 PM 54.8023 -40.5607 252° West  Level Estimated
Sun 04:44:00 PM 54.7627 -40.7653 252° West  Level Estimated
Sun 04:45:00 PM 54.7228 -40.9694 251° West  Level Estimated
Sun 04:46:00 PM 54.6825 -41.1732 251° West  Level Estimated
Sun 04:47:00 PM 54.6419 -41.3765 251° West  Level Estimated
Sun 04:48:00 PM 54.6009 -41.5795 251° West  Level Estimated
Sun 04:49:00 PM 54.5596 -41.7820 251° West  Level Estimated
Sun 04:50:00 PM 54.5179 -41.9841 251° West  Level Estimated
Sun 04:51:00 PM 54.4760 -42.1858 250° West  Level Estimated
Sun 04:52:00 PM 54.4337 -42.3871 250° West  Level Estimated
Sun 04:53:00 PM 54.3910 -42.5880 250° West  Level Estimated
Sun 04:54:00 PM 54.3480 -42.7884 250° West  Level Estimated
Sun 04:55:00 PM 54.3047 -42.9885 250° West  Level Estimated
Sun 04:56:00 PM 54.2611 -43.1881 250° West  Level Estimated
Sun 04:57:00 PM 54.2171 -43.3873 249° West  Level Estimated
Sun 04:58:00 PM 54.1728 -43.5860 249° West  Level Estimated
Sun 04:59:00 PM 54.1282 -43.7844 249° West  Level Estimated
Sun 05:00:00 PM 54.0832 -43.9823 249° West  Level Estimated
Sun 05:01:00 PM 54.0379 -44.1798 249° West  Level Estimated
Sun 05:02:00 PM 53.9923 -44.3768 249° West  Level Estimated
Sun 05:03:00 PM 53.9464 -44.5734 248° West  Level Estimated
Sun 05:04:00 PM 53.9002 -44.7696 248° West  Level Estimated
Sun 05:05:00 PM 53.8536 -44.9653 248° West  Level Estimated
Sun 05:06:00 PM 53.8067 -45.1606 248° West  Level Estimated
Sun 05:07:00 PM 53.7595 -45.3555 248° West  Level Estimated
Sun 05:08:00 PM 53.7120 -45.5499 248° West  Level Estimated
Sun 05:09:00 PM 53.6642 -45.7439 247° West  Level Estimated
Sun 05:10:00 PM 53.6160 -45.9375 247° West  Level Estimated
Sun 05:11:00 PM 53.5676 -46.1306 247° West  Level Estimated
Sun 05:12:00 PM 53.5188 -46.3233 247° West  Level Estimated
Sun 05:13:00 PM 53.4698 -46.5155 247° West  Level Estimated
Sun 05:14:00 PM 53.4204 -46.7072 247° West  Level Estimated
Sun 05:15:00 PM 53.3707 -46.8986 247° West  Level Estimated
Sun 05:16:00 PM 53.3207 -47.0895 246° West  Level Estimated
Sun 05:17:00 PM 53.2704 -47.2799 246° West  Level Estimated
Sun 05:18:00 PM 53.2198 -47.4699 246° West  Level Estimated
Sun 05:19:00 PM 53.1689 -47.6594 246° West  Level Estimated
Sun 05:20:00 PM 53.1177 -47.8485 246° West  Level Estimated
Sun 05:21:00 PM 53.0662 -48.0371 246° West  Level Estimated
Sun 05:22:00 PM 53.0144 -48.2253 245° Southwest  Level Estimated
Sun 05:23:00 PM 52.9623 -48.4130 245° Southwest  Level Estimated
Sun 05:24:00 PM 52.9100 -48.6003 245° Southwest  Level Estimated
Sun 05:25:00 PM 52.8573 -48.7871 245° Southwest  Level Estimated
Sun 05:26:00 PM 52.8043 -48.9735 245° Southwest  Level Estimated
Sun 05:27:00 PM 52.7510 -49.1594 245° Southwest  Level Estimated
Sun 05:28:00 PM 52.6975 -49.3449 245° Southwest  Level Estimated
Sun 05:29:00 PM 52.6437 -49.5299 244° Southwest  Level Estimated
Sun 05:30:00 PM 52.5895 -49.7144 244° Southwest  Level Estimated
Sun 05:31:00 PM 52.5351 -49.8985 244° Southwest  Level Estimated
Sun 05:32:00 PM 52.4804 -50.0821 244° Southwest  Level Estimated
Sun 05:33:00 PM 52.4254 -50.2653 244° Southwest  Level Estimated
Sun 05:34:00 PM 52.3702 -50.4480 244° Southwest  Level Estimated
Sun 05:35:00 PM 52.3146 -50.6303 244° Southwest  Level Estimated
Sun 05:36:00 PM 52.2588 -50.8121 243° Southwest  Level Estimated
Sun 05:37:00 PM 52.2027 -50.9934 243° Southwest  Level Estimated
Sun 05:38:00 PM 52.1463 -51.1743 243° Southwest  Level Estimated
Sun 05:39:00 PM 52.0897 -51.3547 243° Southwest  Level Estimated
Sun 05:40:00 PM 52.0327 -51.5347 243° Southwest  Level Estimated
Sun 05:41:00 PM 51.9755 -51.7142 243° Southwest  Level Estimated
Sun 05:42:00 PM 51.9180 -51.8933 243° Southwest  Level Estimated
Sun 05:43:00 PM 51.8603 -52.0718 242° Southwest  Level Estimated
Sun 05:44:00 PM 51.8023 -52.2500 242° Southwest  Level Estimated
Sun 05:45:00 PM 51.7440 -52.4277 242° Southwest  Level Estimated
Sun 05:46:00 PM 51.6854 -52.6049 242° Southwest  Level Estimated
Sun 05:47:00 PM 51.6266 -52.7816 242° Southwest  Level Estimated
Sun 05:48:00 PM 51.5675 -52.9579 242° Southwest  Level Estimated
Sun 05:49:00 PM 51.5082 -53.1338 242° Southwest  Level Estimated
Sun 05:50:00 PM 51.4486 -53.3091 241° Southwest  Level Estimated
Sun 05:51:00 PM 51.3887 -53.4841 241° Southwest  Level Estimated
Sun 05:52:00 PM 51.3286 -53.6585 241° Southwest  Level Estimated
Sun 05:53:00 PM 51.2682 -53.8325 241° Southwest  Level Estimated
Sun 05:54:00 PM 51.2075 -54.0061 241° Southwest  Level Estimated
Sun 05:55:00 PM 51.1466 -54.1791 241° Southwest  Level Estimated
Sun 05:56:00 PM 51.0855 -54.3518 241° Southwest  Level Estimated
Sun 05:57:00 PM 51.0241 -54.5240 240° Southwest  Level Estimated
Sun 05:58:00 PM 50.9624 -54.6957 240° Southwest  Level Estimated
Sun 05:59:00 PM 50.9005 -54.8669 240° Southwest  Level Estimated
Sun 06:00:00 PM 50.8383 -55.0378 240° Southwest  Level Estimated
Sun 06:01:00 PM 50.7759 -55.2081 240° Southwest  Level Estimated
Sun 06:02:00 PM 50.7133 -55.3780 240° Southwest  Level Estimated
Sun 06:03:00 PM 50.6503 -55.5474 240° Southwest  Level Estimated
Sun 06:04:00 PM 50.5872 -55.7164 240° Southwest  Level Estimated
Sun 06:05:00 PM 50.5238 -55.8850 239° Southwest  Level Estimated
Sun 06:06:00 PM 50.4602 -56.0530 239° Southwest  Level Estimated
Sun 06:07:00 PM 50.3963 -56.2207 239° Southwest  Level Estimated
Sun 06:08:00 PM 50.3322 -56.3879 239° Southwest  Level Estimated
Sun 06:09:00 PM 50.2678 -56.5546 239° Southwest  Level Estimated
Sun 06:10:00 PM 50.2032 -56.7209 239° Southwest  Level Estimated
Sun 06:11:00 PM 50.1384 -56.8867 239° Southwest  Level Estimated
Sun 06:12:00 PM 50.0733 -57.0520 239° Southwest  Level Estimated
Sun 06:13:00 PM 50.0080 -57.2170 238° Southwest  Level Estimated
Sun 06:14:00 PM 49.9425 -57.3815 238° Southwest  Level Estimated
Sun 06:15:00 PM 49.8767 -57.5455 238° Southwest  Level Estimated
Sun 06:16:00 PM 49.8107 -57.7091 238° Southwest  Level Estimated
Sun 06:17:00 PM 49.7445 -57.8722 238° Southwest  Level Estimated
Sun 06:18:00 PM 49.6780 -58.0349 238° Southwest  Level Estimated
Sun 06:19:00 PM 49.6113 -58.1971 238° Southwest  Level Estimated
Sun 06:20:00 PM 49.5444 -58.3589 238° Southwest  Level Estimated
Sun 06:21:00 PM 49.4773 -58.5203 237° Southwest  Level Estimated
Sun 06:22:00 PM 49.4099 -58.6812 237° Southwest  Level Estimated
Sun 06:23:00 PM 49.3423 -58.8417 237° Southwest  Level Estimated
Sun 06:24:00 PM 49.2745 -59.0017 237° Southwest  Level Estimated
Sun 06:25:00 PM 49.2065 -59.1613 237° Southwest  Level Estimated
Sun 06:26:00 PM 49.1383 -59.3205 237° Southwest  Level Estimated
Sun 06:27:00 PM 49.0698 -59.4792 237° Southwest  Level Estimated
Sun 06:28:00 PM 49.0011 -59.6375 237° Southwest  Level Estimated
Sun 06:29:00 PM 48.9322 -59.7953 236° Southwest  Level Estimated
Sun 06:30:00 PM 48.8631 -59.9527 236° Southwest  Level Estimated
Sun 06:31:00 PM 48.7938 -60.1097 236° Southwest  Level Estimated
Sun 06:32:00 PM 48.7243 -60.2662 236° Southwest  Level Estimated
Sun 06:33:00 PM 48.6545 -60.4223 236° Southwest  Level Estimated
Sun 06:34:00 PM 48.5846 -60.5780 236° Southwest  Level Estimated
Sun 06:35:00 PM 48.5144 -60.7332 236° Southwest  Level Estimated
Sun 06:36:00 PM 48.4440 -60.8880 236° Southwest  Level Estimated
Sun 06:37:00 PM 48.3734 -61.0424 236° Southwest  Level Estimated
Sun 06:38:00 PM 48.3027 -61.1964 235° Southwest  Level Estimated
Sun 06:39:00 PM 48.2317 -61.3499 235° Southwest  Level Estimated
Sun 06:40:00 PM 48.1605 -61.5030 235° Southwest  Level Estimated
Sun 06:41:00 PM 48.0891 -61.6557 235° Southwest  Level Estimated
Sun 06:42:00 PM 48.0175 -61.8079 235° Southwest  Level Estimated
Sun 06:43:00 PM 47.9457 -61.9598 235° Southwest  Level Estimated
Sun 06:44:00 PM 47.8737 -62.1112 235° Southwest  Level Estimated
Sun 06:45:00 PM 47.8015 -62.2622 235° Southwest  Level Estimated
Sun 06:46:00 PM 47.7291 -62.4127 234° Southwest  Level Estimated
Sun 06:47:00 PM 47.6565 -62.5629 234° Southwest  Level Estimated
Sun 06:48:00 PM 47.5837 -62.7126 234° Southwest  Level Estimated
Sun 06:49:00 PM 47.5107 -62.8619 234° Southwest  Level Estimated
Sun 06:50:00 PM 47.4375 -63.0108 234° Southwest  Level Estimated
Sun 06:51:00 PM 47.3642 -63.1593 234° Southwest  Level Estimated
Sun 06:52:00 PM 47.2906 -63.3074 234° Southwest  Level Estimated
Sun 06:53:00 PM 47.2168 -63.4550 234° Southwest  Level Estimated
Sun 06:54:00 PM 47.1429 -63.6023 234° Southwest  Level Estimated
Sun 06:55:00 PM 47.0688 -63.7491 233° Southwest  Level Estimated
Sun 06:56:00 PM 46.9945 -63.8956 233° Southwest  Level Estimated
Sun 06:57:00 PM 46.9200 -64.0416 233° Southwest  Level Estimated
Sun 06:58:00 PM 46.8453 -64.1872 233° Southwest  Level Estimated
Sun 06:59:00 PM 46.7704 -64.3324 233° Southwest  Level Estimated
Sun 07:00:00 PM 46.6954 -64.4772 233° Southwest  Level Estimated
Sun 07:01:00 PM 46.6201 -64.6216 233° Southwest  Level Estimated
Sun 07:02:00 PM 46.5447 -64.7656 233° Southwest  Level Estimated
Sun 07:03:00 PM 46.4691 -64.9092 233° Southwest  Level Estimated
Sun 07:04:00 PM 46.3933 -65.0525 233° Southwest  Level Estimated
Sun 07:05:00 PM 46.3174 -65.1953 232° Southwest  Level Estimated
Sun 07:06:00 PM 46.2412 -65.3377 232° Southwest  Level Estimated
Sun 07:07:00 PM 46.1649 -65.4797 232° Southwest  Level Estimated
Sun 07:08:00 PM 46.0884 -65.6213 232° Southwest  Level Estimated
Sun 07:09:00 PM 46.0118 -65.7626 232° Southwest  Level Estimated
Sun 07:10:00 PM 45.9350 -65.9034 232° Southwest  Level Estimated
Sun 07:11:00 PM 45.8579 -66.0438 232° Southwest  Level Estimated
Sun 07:12:00 PM 45.7808 -66.1839 232° Southwest  Level Estimated
Sun 07:13:00 PM 45.7034 -66.3236 232° Southwest  Level Estimated
Sun 07:14:00 PM 45.6259 -66.4629 232° Southwest  Level Estimated
Sun 07:15:00 PM 45.5482 -66.6018 231° Southwest  Level Estimated
Sun 07:16:00 PM 45.4704 -66.7403 231° Southwest  Level Estimated
Sun 07:17:00 PM 45.3924 -66.8784 231° Southwest  Level Estimated
Sun 07:18:00 PM 45.3142 -67.0162 231° Southwest  Level Estimated
Sun 07:19:00 PM 45.2358 -67.1536 231° Southwest  Level Estimated
Sun 07:20:00 PM 45.1573 -67.2906 231° Southwest  Level Estimated
Sun 07:21:00 PM 45.0786 -67.4272 231° Southwest  Level Estimated
Sun 07:22:00 PM 44.9998 -67.5634 231° Southwest  Level Estimated
Sun 07:23:00 PM 44.9208 -67.6993 231° Southwest  Level Estimated
Sun 07:24:00 PM 44.8416 -67.8348 231° Southwest  Level Estimated
Sun 07:25:00 PM 44.7623 -67.9699 230° Southwest  Level Estimated
Sun 07:26:00 PM 44.6828 -68.1047 230° Southwest  Level Estimated
Sun 07:27:00 PM 44.6032 -68.2390 230° Southwest  Level Estimated
Sun 07:28:00 PM 44.5234 -68.3730 230° Southwest  Level Estimated
Sun 07:29:00 PM 44.4434 -68.5067 230° Southwest  Level Estimated
Sun 07:30:00 PM 44.3633 -68.6400 230° Southwest  Level Estimated
Sun 07:31:00 PM 44.2831 -68.7729 230° Southwest  Level Estimated
Sun 07:32:00 PM 44.2026 -68.9054 230° Southwest  Level Estimated
Sun 07:33:00 PM 44.1221 -69.0376 230° Southwest  Level Estimated
Sun 07:34:00 PM 44.0414 -69.1695 230° Southwest  Level Estimated
Sun 07:35:00 PM 43.9605 -69.3009 230° Southwest  Level Estimated
Sun 07:36:00 PM 43.8795 -69.4320 229° Southwest  Level Estimated
Sun 07:37:00 PM 43.7983 -69.5628 229° Southwest  Level Estimated
Sun 07:38:00 PM 43.7170 -69.6932 229° Southwest  Level Estimated
Sun 07:39:00 PM 43.6355 -69.8232 229° Southwest  Level Estimated
Sun 07:40:00 PM 43.5539 -69.9529 229° Southwest  Level Estimated
Sun 07:41:00 PM 43.4721 -70.0823 229° Southwest  Level Estimated
Sun 07:42:00 PM 43.3902 -70.2113 229° Southwest  Level Estimated
Sun 07:43:00 PM 43.3082 -70.3400 229° Southwest  Level Estimated
Sun 07:44:00 PM 43.2260 -70.4682 229° Southwest  Level Estimated
Sun 07:45:00 PM 43.1436 -70.5962 229° Southwest  Level Estimated
Sun 07:46:00 PM 43.0611 -70.7238 229° Southwest  Level Estimated
Sun 07:47:00 PM 42.9785 -70.8511 228° Southwest  Level Estimated
Sun 07:48:00 PM 42.8958 -70.9780 228° Southwest  Level Estimated
Sun 07:49:00 PM 42.8129 -71.1046 228° Southwest  Level Estimated
Sun 07:50:00 PM 42.7298 -71.2308 228° Southwest  Level Estimated
Sun 07:51:00 PM 42.6466 -71.3567 228° Southwest  Level Estimated
Sun 07:52:00 PM 42.5633 -71.4823 228° Southwest  Level Estimated
Sun 07:53:00 PM 42.4799 -71.6076 228° Southwest  Level Estimated
Sun 07:54:00 PM 42.3963 -71.7325 228° Southwest  Level Estimated
Sun 07:55:00 PM 42.3126 -71.8570 228° Southwest  Level Estimated
Sun 07:56:00 PM 42.2287 -71.9813 228° Southwest  Level Estimated
Sun 07:57:00 PM 42.1447 -72.1052 228° Southwest  Level Estimated
Sun 07:58:00 PM 42.0606 -72.2288 228° Southwest  Level Estimated
Sun 07:59:00 PM 41.9763 -72.3520 227° Southwest  Level Estimated
Sun 08:00:00 PM 41.8919 -72.4749 227° Southwest  Level Estimated
Sun 08:01:00 PM 41.8074 -72.5975 227° Southwest  Level Estimated
Sun 08:02:00 PM 41.7228 -72.7198 227° Southwest  Level Estimated
Sun 08:03:00 PM 41.6380 -72.8418 227° Southwest  Level Estimated
Sun 08:04:00 PM 41.5531 -72.9634 227° Southwest  Level Estimated
Sun 08:05:00 PM 41.4680 -73.0847 227° Southwest  Level Estimated
Sun 08:06:00 PM 41.3829 -73.2057 227° Southwest  Level Estimated
Sun 08:07:00 PM 41.2976 -73.3264 227° Southwest  Level Estimated
Sun 08:08:00 PM 41.2122 -73.4468 227° Southwest  Level Estimated
Sun 08:09:00 PM 41.1266 -73.5668 227° Southwest  Level Estimated
Sun 08:10:00 PM 41.0410 -73.6865 227° Southwest  Level Estimated
Sun 08:11:00 PM 40.9552 -73.8060 226° Southwest  Level Estimated
Sun 08:12:00 PM 40.8693 -73.9251 226° Southwest  Level Estimated
Sun 08:13:00 PM 40.7832 -74.0439 226° Southwest  Level Estimated
Sun 08:14:00 PM 40.6971 -74.1624 226° Southwest  Level Estimated
Sun 08:15:00 PM 40.6925 -74.1687 226° Southwest  Level Estimated
Sun 08:16:00 PM 40.6925 -74.1687 90° East  Level Estimated
Sun 08:17:00 PM 40.6925 -74.1687 90° East  Level Estimated
Sun 08:18:00 PM 40.6925 -74.1687 90° East  Level Estimated
Sun 08:19:00 PM 40.6925 -74.1687 90° East  Level Estimated
Sun 08:20:00 PM 40.6925 -74.1687 90° East  Level Estimated
Sun 08:21:00 PM 40.6925 -74.1687 90° East  Level Estimated
Sun 08:22:00 PM 40.6925 -74.1687 90° East  Level Estimated
Sun 08:23:00 PM 40.6925 -74.1687 90° East  Level Estimated
Sun 08:24:00 PM 40.6925 -74.1687 90° East  Level Estimated
Sun 08:25:00 PM 40.6925 -74.1687 90° East  Level Estimated
Sun 08:26:00 PM 40.6925 -74.1687 90° East  Level Estimated
Sun 08:27:00 PM 40.6925 -74.1687 90° East  Level Estimated
Sun 08:28:00 PM 40.6925 -74.1687 90° East  Level Estimated
Sun 08:29:00 PM 40.6925 -74.1687 90° East  Level Estimated
Sun 08:30:00 PM 40.6925 -74.1687 90° East  Level Estimated

Login

Don't have an account? Register now (free) for customized features, flight alerts, and more!